sensor_id;sensor_type;location;lat;lon;timestamp;pressure;altitude;pressure_sealevel;temperature
60966;BMP180;46834;51.100;6.886;2022-11-15T00:00:49;100465.00;;;12.90
60966;BMP180;46834;51.100;6.886;2022-11-15T00:03:17;100467.00;;;12.90
60966;BMP180;46834;51.100;6.886;2022-11-15T00:05:43;100458.00;;;12.90
60966;BMP180;46834;51.100;6.886;2022-11-15T00:08:09;100459.00;;;12.90
60966;BMP180;46834;51.100;6.886;2022-11-15T00:10:36;100459.00;;;12.90
60966;BMP180;46834;51.100;6.886;2022-11-15T00:13:11;100461.00;;;12.90
60966;BMP180;46834;51.100;6.886;2022-11-15T00:15:39;100467.00;;;13.00
60966;BMP180;46834;51.100;6.886;2022-11-15T00:18:06;100467.00;;;13.00
60966;BMP180;46834;51.100;6.886;2022-11-15T00:20:36;100464.00;;;13.00
60966;BMP180;46834;51.100;6.886;2022-11-15T00:23:04;100450.00;;;13.00
60966;BMP180;46834;51.100;6.886;2022-11-15T00:25:30;100449.00;;;13.00
60966;BMP180;46834;51.100;6.886;2022-11-15T00:27:57;100457.00;;;13.00
60966;BMP180;46834;51.100;6.886;2022-11-15T00:30:23;100451.00;;;13.10
60966;BMP180;46834;51.100;6.886;2022-11-15T00:32:49;100458.00;;;13.10
60966;BMP180;46834;51.100;6.886;2022-11-15T00:35:15;100454.00;;;13.10
60966;BMP180;46834;51.100;6.886;2022-11-15T00:37:41;100466.00;;;13.10
60966;BMP180;46834;51.100;6.886;2022-11-15T00:40:10;100466.00;;;13.20
60966;BMP180;46834;51.100;6.886;2022-11-15T00:42:38;100519.00;;;13.20
60966;BMP180;46834;51.100;6.886;2022-11-15T00:45:04;100512.00;;;13.20
60966;BMP180;46834;51.100;6.886;2022-11-15T00:47:30;100517.00;;;13.20
60966;BMP180;46834;51.100;6.886;2022-11-15T00:49:56;100515.00;;;13.20
60966;BMP180;46834;51.100;6.886;2022-11-15T00:52:22;100513.00;;;13.30
60966;BMP180;46834;51.100;6.886;2022-11-15T00:54:48;100502.00;;;13.30
60966;BMP180;46834;51.100;6.886;2022-11-15T00:57:13;100516.00;;;13.30
60966;BMP180;46834;51.100;6.886;2022-11-15T00:59:39;100511.00;;;13.30
60966;BMP180;46834;51.100;6.886;2022-11-15T01:02:05;100507.00;;;13.30
60966;BMP180;46834;51.100;6.886;2022-11-15T01:04:30;100501.00;;;13.40
60966;BMP180;46834;51.100;6.886;2022-11-15T01:06:56;100511.00;;;13.40
60966;BMP180;46834;51.100;6.886;2022-11-15T01:09:22;100500.00;;;13.40
60966;BMP180;46834;51.100;6.886;2022-11-15T01:11:47;100509.00;;;13.40
60966;BMP180;46834;51.100;6.886;2022-11-15T01:14:13;100496.00;;;13.40
60966;BMP180;46834;51.100;6.886;2022-11-15T01:16:39;100494.00;;;13.40
60966;BMP180;46834;51.100;6.886;2022-11-15T01:19:04;100491.00;;;13.40
60966;BMP180;46834;51.100;6.886;2022-11-15T01:21:30;100505.00;;;13.40
60966;BMP180;46834;51.100;6.886;2022-11-15T01:23:57;100505.00;;;13.50
60966;BMP180;46834;51.100;6.886;2022-11-15T01:26:24;100505.00;;;13.50
60966;BMP180;46834;51.100;6.886;2022-11-15T01:28:50;100510.00;;;13.50
60966;BMP180;46834;51.100;6.886;2022-11-15T01:31:20;100502.00;;;13.50
60966;BMP180;46834;51.100;6.886;2022-11-15T01:33:48;100495.00;;;13.50
60966;BMP180;46834;51.100;6.886;2022-11-15T01:36:17;100491.00;;;13.50
60966;BMP180;46834;51.100;6.886;2022-11-15T01:38:44;100493.00;;;13.50
60966;BMP180;46834;51.100;6.886;2022-11-15T01:41:23;100497.00;;;13.50
60966;BMP180;46834;51.100;6.886;2022-11-15T01:43:52;100497.00;;;13.50
60966;BMP180;46834;51.100;6.886;2022-11-15T01:48:47;100494.00;;;13.60
60966;BMP180;46834;51.100;6.886;2022-11-15T01:51:18;100480.00;;;13.60
60966;BMP180;46834;51.100;6.886;2022-11-15T01:53:49;100481.00;;;13.60
60966;BMP180;46834;51.100;6.886;2022-11-15T01:56:25;100485.00;;;13.60
60966;BMP180;46834;51.100;6.886;2022-11-15T01:58:57;100486.00;;;13.60
60966;BMP180;46834;51.100;6.886;2022-11-15T02:01:25;100482.00;;;13.60
60966;BMP180;46834;51.100;6.886;2022-11-15T02:03:58;100478.00;;;13.60
60966;BMP180;46834;51.100;6.886;2022-11-15T02:06:24;100474.00;;;13.60
60966;BMP180;46834;51.100;6.886;2022-11-15T02:08:51;100468.00;;;13.70
60966;BMP180;46834;51.100;6.886;2022-11-15T02:11:17;100465.00;;;13.70
60966;BMP180;46834;51.100;6.886;2022-11-15T02:13:43;100462.00;;;13.70
60966;BMP180;46834;51.100;6.886;2022-11-15T02:16:39;100444.00;;;13.70
60966;BMP180;46834;51.100;6.886;2022-11-15T02:25:18;100440.00;;;13.70
60966;BMP180;46834;51.100;6.886;2022-11-15T02:31:11;100441.00;;;13.60
60966;BMP180;46834;51.100;6.886;2022-11-15T02:37:11;100445.00;;;13.70
60966;BMP180;46834;51.100;6.886;2022-11-15T02:42:37;100452.00;;;13.70
60966;BMP180;46834;51.100;6.886;2022-11-15T02:45:32;100436.00;;;13.70
60966;BMP180;46834;51.100;6.886;2022-11-15T02:48:01;100434.00;;;13.80
60966;BMP180;46834;51.100;6.886;2022-11-15T02:50:31;100443.00;;;13.80
60966;BMP180;46834;51.100;6.886;2022-11-15T02:52:58;100439.00;;;13.80
60966;BMP180;46834;51.100;6.886;2022-11-15T02:55:33;100438.00;;;13.80
60966;BMP180;46834;51.100;6.886;2022-11-15T03:01:37;100427.00;;;13.80
60966;BMP180;46834;51.100;6.886;2022-11-15T03:04:19;100434.00;;;13.90
60966;BMP180;46834;51.100;6.886;2022-11-15T03:12:50;100434.00;;;13.90
60966;BMP180;46834;51.100;6.886;2022-11-15T03:15:31;100430.00;;;13.90
60966;BMP180;46834;51.100;6.886;2022-11-15T03:18:28;100441.00;;;13.90
60966;BMP180;46834;51.100;6.886;2022-11-15T03:20:58;100427.00;;;14.00
60966;BMP180;46834;51.100;6.886;2022-11-15T03:23:26;100426.00;;;14.00
60966;BMP180;46834;51.100;6.886;2022-11-15T03:25:55;100429.00;;;14.00
60966;BMP180;46834;51.100;6.886;2022-11-15T03:28:38;100426.00;;;14.00
60966;BMP180;46834;51.100;6.886;2022-11-15T03:31:06;100436.00;;;14.00
60966;BMP180;46834;51.100;6.886;2022-11-15T03:33:55;100432.00;;;14.00
60966;BMP180;46834;51.100;6.886;2022-11-15T03:36:24;100421.00;;;14.00
60966;BMP180;46834;51.100;6.886;2022-11-15T03:38:58;100411.00;;;14.00
60966;BMP180;46834;51.100;6.886;2022-11-15T03:41:48;100417.00;;;14.00
60966;BMP180;46834;51.100;6.886;2022-11-15T03:47:30;100412.00;;;14.00
60966;BMP180;46834;51.100;6.886;2022-11-15T03:50:09;100414.00;;;14.00
60966;BMP180;46834;51.100;6.886;2022-11-15T03:52:36;100401.00;;;14.10
60966;BMP180;46834;51.100;6.886;2022-11-15T03:55:05;100412.00;;;14.10
60966;BMP180;46834;51.100;6.886;2022-11-15T03:57:31;100421.00;;;14.10
60966;BMP180;46834;51.100;6.886;2022-11-15T03:59:57;100427.00;;;14.10
60966;BMP180;46834;51.100;6.886;2022-11-15T04:02:23;100421.00;;;14.10
60966;BMP180;46834;51.100;6.886;2022-11-15T04:04:48;100409.00;;;14.10
60966;BMP180;46834;51.100;6.886;2022-11-15T04:07:14;100402.00;;;14.10
60966;BMP180;46834;51.100;6.886;2022-11-15T04:09:39;100408.00;;;14.10
60966;BMP180;46834;51.100;6.886;2022-11-15T04:12:24;100406.00;;;14.10
60966;BMP180;46834;51.100;6.886;2022-11-15T04:15:17;100403.00;;;14.10
60966;BMP180;46834;51.100;6.886;2022-11-15T04:17:50;100404.00;;;14.10
60966;BMP180;46834;51.100;6.886;2022-11-15T04:20:29;100392.00;;;14.10
60966;BMP180;46834;51.100;6.886;2022-11-15T04:23:18;100402.00;;;14.10
60966;BMP180;46834;51.100;6.886;2022-11-15T04:26:07;100395.00;;;14.10
60966;BMP180;46834;51.100;6.886;2022-11-15T04:28:33;100396.00;;;14.10
60966;BMP180;46834;51.100;6.886;2022-11-15T04:30:59;100399.00;;;14.20
60966;BMP180;46834;51.100;6.886;2022-11-15T04:33:25;100399.00;;;14.20
60966;BMP180;46834;51.100;6.886;2022-11-15T04:35:51;100394.00;;;14.20
60966;BMP180;46834;51.100;6.886;2022-11-15T04:38:36;100393.00;;;14.20
60966;BMP180;46834;51.100;6.886;2022-11-15T04:41:02;100396.00;;;14.20
60966;BMP180;46834;51.100;6.886;2022-11-15T04:43:29;100396.00;;;14.20
60966;BMP180;46834;51.100;6.886;2022-11-15T04:45:55;100401.00;;;14.20
60966;BMP180;46834;51.100;6.886;2022-11-15T04:48:21;100392.00;;;14.20
60966;BMP180;46834;51.100;6.886;2022-11-15T04:50:49;100400.00;;;14.20
60966;BMP180;46834;51.100;6.886;2022-11-15T04:53:15;100399.00;;;14.20
60966;BMP180;46834;51.100;6.886;2022-11-15T04:55:45;100401.00;;;14.20
60966;BMP180;46834;51.100;6.886;2022-11-15T04:58:11;100396.00;;;14.30
60966;BMP180;46834;51.100;6.886;2022-11-15T05:00:37;100397.00;;;14.30
60966;BMP180;46834;51.100;6.886;2022-11-15T05:03:02;100399.00;;;14.30
60966;BMP180;46834;51.100;6.886;2022-11-15T05:05:47;100397.00;;;14.30
60966;BMP180;46834;51.100;6.886;2022-11-15T05:08:12;100397.00;;;14.30
60966;BMP180;46834;51.100;6.886;2022-11-15T05:10:38;100398.00;;;14.30
60966;BMP180;46834;51.100;6.886;2022-11-15T05:13:03;100395.00;;;14.30
60966;BMP180;46834;51.100;6.886;2022-11-15T05:15:29;100398.00;;;14.30
60966;BMP180;46834;51.100;6.886;2022-11-15T05:17:59;100400.00;;;14.30
60966;BMP180;46834;51.100;6.886;2022-11-15T05:20:26;100393.00;;;14.30
60966;BMP180;46834;51.100;6.886;2022-11-15T05:22:53;100403.00;;;14.30
60966;BMP180;46834;51.100;6.886;2022-11-15T05:25:21;100387.00;;;14.30
60966;BMP180;46834;51.100;6.886;2022-11-15T05:27:47;100384.00;;;14.30
60966;BMP180;46834;51.100;6.886;2022-11-15T05:30:14;100400.00;;;14.40
60966;BMP180;46834;51.100;6.886;2022-11-15T05:32:40;100388.00;;;14.40
60966;BMP180;46834;51.100;6.886;2022-11-15T05:35:08;100387.00;;;14.40
60966;BMP180;46834;51.100;6.886;2022-11-15T05:37:37;100384.00;;;14.40
60966;BMP180;46834;51.100;6.886;2022-11-15T05:40:03;100391.00;;;14.40
60966;BMP180;46834;51.100;6.886;2022-11-15T05:42:30;100391.00;;;14.40
60966;BMP180;46834;51.100;6.886;2022-11-15T05:44:57;100387.00;;;14.40
60966;BMP180;46834;51.100;6.886;2022-11-15T05:47:28;100400.00;;;14.40
60966;BMP180;46834;51.100;6.886;2022-11-15T05:49:55;100385.00;;;14.40
60966;BMP180;46834;51.100;6.886;2022-11-15T05:52:28;100385.00;;;14.40
60966;BMP180;46834;51.100;6.886;2022-11-15T05:54:56;100390.00;;;14.40
60966;BMP180;46834;51.100;6.886;2022-11-15T05:57:22;100394.00;;;14.40
60966;BMP180;46834;51.100;6.886;2022-11-15T05:59:47;100396.00;;;14.40
60966;BMP180;46834;51.100;6.886;2022-11-15T06:02:13;100384.00;;;14.40
60966;BMP180;46834;51.100;6.886;2022-11-15T06:04:39;100398.00;;;14.50
60966;BMP180;46834;51.100;6.886;2022-11-15T06:07:04;100397.00;;;14.50
60966;BMP180;46834;51.100;6.886;2022-11-15T06:09:30;100404.00;;;14.50
60966;BMP180;46834;51.100;6.886;2022-11-15T06:11:56;100409.00;;;14.50
60966;BMP180;46834;51.100;6.886;2022-11-15T06:14:21;100406.00;;;14.50
60966;BMP180;46834;51.100;6.886;2022-11-15T06:16:47;100411.00;;;14.50
60966;BMP180;46834;51.100;6.886;2022-11-15T06:19:12;100402.00;;;14.50
60966;BMP180;46834;51.100;6.886;2022-11-15T06:21:38;100412.00;;;14.50
60966;BMP180;46834;51.100;6.886;2022-11-15T06:24:05;100426.00;;;14.50
60966;BMP180;46834;51.100;6.886;2022-11-15T06:26:31;100424.00;;;14.50
60966;BMP180;46834;51.100;6.886;2022-11-15T06:28:57;100417.00;;;14.50
60966;BMP180;46834;51.100;6.886;2022-11-15T06:31:23;100427.00;;;14.50
60966;BMP180;46834;51.100;6.886;2022-11-15T06:33:48;100411.00;;;14.50
60966;BMP180;46834;51.100;6.886;2022-11-15T06:36:15;100427.00;;;14.50
60966;BMP180;46834;51.100;6.886;2022-11-15T06:38:44;100424.00;;;14.50
60966;BMP180;46834;51.100;6.886;2022-11-15T06:41:12;100427.00;;;14.50
60966;BMP180;46834;51.100;6.886;2022-11-15T06:43:39;100430.00;;;14.50
60966;BMP180;46834;51.100;6.886;2022-11-15T06:46:06;100438.00;;;14.40
60966;BMP180;46834;51.100;6.886;2022-11-15T06:48:33;100422.00;;;14.40
60966;BMP180;46834;51.100;6.886;2022-11-15T06:51:01;100412.00;;;14.40
60966;BMP180;46834;51.100;6.886;2022-11-15T06:53:29;100438.00;;;14.40
60966;BMP180;46834;51.100;6.886;2022-11-15T06:56:03;100440.00;;;14.40
60966;BMP180;46834;51.100;6.886;2022-11-15T06:58:30;100430.00;;;14.40
60966;BMP180;46834;51.100;6.886;2022-11-15T07:01:06;100446.00;;;14.30
60966;BMP180;46834;51.100;6.886;2022-11-15T07:03:36;100448.00;;;14.40
60966;BMP180;46834;51.100;6.886;2022-11-15T07:06:03;100456.00;;;14.40
60966;BMP180;46834;51.100;6.886;2022-11-15T07:08:29;100458.00;;;14.40
60966;BMP180;46834;51.100;6.886;2022-11-15T07:10:58;100461.00;;;14.40
60966;BMP180;46834;51.100;6.886;2022-11-15T07:13:26;100463.00;;;14.40
60966;BMP180;46834;51.100;6.886;2022-11-15T07:15:52;100459.00;;;14.40
60966;BMP180;46834;51.100;6.886;2022-11-15T07:18:18;100463.00;;;14.40
60966;BMP180;46834;51.100;6.886;2022-11-15T07:20:43;100465.00;;;14.40
60966;BMP180;46834;51.100;6.886;2022-11-15T07:23:09;100464.00;;;14.40
60966;BMP180;46834;51.100;6.886;2022-11-15T07:25:35;100476.00;;;14.40
60966;BMP180;46834;51.100;6.886;2022-11-15T07:28:00;100470.00;;;14.40
60966;BMP180;46834;51.100;6.886;2022-11-15T07:30:27;100482.00;;;14.40
60966;BMP180;46834;51.100;6.886;2022-11-15T07:32:58;100482.00;;;14.40
60966;BMP180;46834;51.100;6.886;2022-11-15T07:35:25;100486.00;;;14.40
60966;BMP180;46834;51.100;6.886;2022-11-15T07:38:02;100483.00;;;14.30
60966;BMP180;46834;51.100;6.886;2022-11-15T07:40:30;100489.00;;;14.40
60966;BMP180;46834;51.100;6.886;2022-11-15T07:43:06;100493.00;;;14.40
60966;BMP180;46834;51.100;6.886;2022-11-15T07:45:32;100493.00;;;14.40
60966;BMP180;46834;51.100;6.886;2022-11-15T07:48:01;100495.00;;;14.40
60966;BMP180;46834;51.100;6.886;2022-11-15T07:50:27;100501.00;;;14.40
60966;BMP180;46834;51.100;6.886;2022-11-15T07:52:57;100497.00;;;14.40
60966;BMP180;46834;51.100;6.886;2022-11-15T07:55:25;100495.00;;;14.50
60966;BMP180;46834;51.100;6.886;2022-11-15T07:57:51;100504.00;;;14.50
60966;BMP180;46834;51.100;6.886;2022-11-15T08:00:17;100491.00;;;14.50
60966;BMP180;46834;51.100;6.886;2022-11-15T08:02:43;100487.00;;;14.50
60966;BMP180;46834;51.100;6.886;2022-11-15T08:05:09;100494.00;;;14.50
60966;BMP180;46834;51.100;6.886;2022-11-15T08:07:35;100490.00;;;14.50
60966;BMP180;46834;51.100;6.886;2022-11-15T08:10:00;100495.00;;;14.50
60966;BMP180;46834;51.100;6.886;2022-11-15T08:12:29;100500.00;;;14.50
60966;BMP180;46834;51.100;6.886;2022-11-15T08:14:55;100496.00;;;14.50
60966;BMP180;46834;51.100;6.886;2022-11-15T08:17:23;100497.00;;;14.50
60966;BMP180;46834;51.100;6.886;2022-11-15T08:19:49;100491.00;;;14.50
60966;BMP180;46834;51.100;6.886;2022-11-15T08:22:15;100496.00;;;14.50
60966;BMP180;46834;51.100;6.886;2022-11-15T08:24:41;100497.00;;;14.50
60966;BMP180;46834;51.100;6.886;2022-11-15T08:27:07;100498.00;;;14.50
60966;BMP180;46834;51.100;6.886;2022-11-15T08:29:44;100497.00;;;14.50
60966;BMP180;46834;51.100;6.886;2022-11-15T08:32:11;100493.00;;;14.50
60966;BMP180;46834;51.100;6.886;2022-11-15T08:34:40;100499.00;;;14.50
60966;BMP180;46834;51.100;6.886;2022-11-15T08:37:06;100495.00;;;14.60
60966;BMP180;46834;51.100;6.886;2022-11-15T08:39:32;100492.00;;;14.60
60966;BMP180;46834;51.100;6.886;2022-11-15T08:41:58;100490.00;;;14.60
60966;BMP180;46834;51.100;6.886;2022-11-15T08:44:23;100492.00;;;14.60
60966;BMP180;46834;51.100;6.886;2022-11-15T08:46:50;100480.00;;;14.60
60966;BMP180;46834;51.100;6.886;2022-11-15T08:49:16;100475.00;;;14.60
60966;BMP180;46834;51.100;6.886;2022-11-15T08:51:42;100467.00;;;14.70
60966;BMP180;46834;51.100;6.886;2022-11-15T08:54:08;100467.00;;;14.70
60966;BMP180;46834;51.100;6.886;2022-11-15T08:56:34;100460.00;;;14.80
60966;BMP180;46834;51.100;6.886;2022-11-15T08:58:59;100463.00;;;14.80
60966;BMP180;46834;51.100;6.886;2022-11-15T09:01:25;100459.00;;;15.00
60966;BMP180;46834;51.100;6.886;2022-11-15T09:03:50;100467.00;;;14.90
60966;BMP180;46834;51.100;6.886;2022-11-15T09:06:16;100460.00;;;14.90
60966;BMP180;46834;51.100;6.886;2022-11-15T09:08:42;100460.00;;;14.90
60966;BMP180;46834;51.100;6.886;2022-11-15T09:11:09;100454.00;;;14.80
60966;BMP180;46834;51.100;6.886;2022-11-15T09:13:36;100457.00;;;14.80
60966;BMP180;46834;51.100;6.886;2022-11-15T09:16:04;100457.00;;;14.90
60966;BMP180;46834;51.100;6.886;2022-11-15T09:18:30;100450.00;;;14.90
60966;BMP180;46834;51.100;6.886;2022-11-15T09:20:58;100457.00;;;14.90
60966;BMP180;46834;51.100;6.886;2022-11-15T09:23:25;100454.00;;;14.90
60966;BMP180;46834;51.100;6.886;2022-11-15T09:25:52;100460.00;;;14.90
60966;BMP180;46834;51.100;6.886;2022-11-15T09:28:18;100449.00;;;14.90
60966;BMP180;46834;51.100;6.886;2022-11-15T09:30:44;100458.00;;;15.30
60966;BMP180;46834;51.100;6.886;2022-11-15T09:33:11;100455.00;;;15.20
60966;BMP180;46834;51.100;6.886;2022-11-15T09:35:37;100457.00;;;15.20
60966;BMP180;46834;51.100;6.886;2022-11-15T09:38:03;100454.00;;;15.10
60966;BMP180;46834;51.100;6.886;2022-11-15T09:40:31;100440.00;;;15.10
60966;BMP180;46834;51.100;6.886;2022-11-15T09:43:40;100448.00;;;15.10
60966;BMP180;46834;51.100;6.886;2022-11-15T09:46:31;100437.00;;;15.10
60966;BMP180;46834;51.100;6.886;2022-11-15T09:49:02;100428.00;;;15.10
60966;BMP180;46834;51.100;6.886;2022-11-15T09:51:33;100427.00;;;15.40
60966;BMP180;46834;51.100;6.886;2022-11-15T09:54:39;100415.00;;;15.50
60966;BMP180;46834;51.100;6.886;2022-11-15T09:57:15;100414.00;;;15.70
60966;BMP180;46834;51.100;6.886;2022-11-15T10:03:13;100406.00;;;15.40
60966;BMP180;46834;51.100;6.886;2022-11-15T10:05:54;100397.00;;;15.40
60966;BMP180;46834;51.100;6.886;2022-11-15T10:11:30;100385.00;;;15.40
60966;BMP180;46834;51.100;6.886;2022-11-15T10:14:01;100386.00;;;15.40
60966;BMP180;46834;51.100;6.886;2022-11-15T10:22:49;100371.00;;;15.70
60966;BMP180;46834;51.100;6.886;2022-11-15T10:25:26;100374.00;;;15.60
60966;BMP180;46834;51.100;6.886;2022-11-15T10:27:57;100375.00;;;15.60
60966;BMP180;46834;51.100;6.886;2022-11-15T10:30:32;100370.00;;;15.60
60966;BMP180;46834;51.100;6.886;2022-11-15T10:33:10;100375.00;;;15.60
60966;BMP180;46834;51.100;6.886;2022-11-15T10:35:37;100365.00;;;15.60
60966;BMP180;46834;51.100;6.886;2022-11-15T10:38:11;100358.00;;;15.60
60966;BMP180;46834;51.100;6.886;2022-11-15T10:40:39;100357.00;;;15.70
60966;BMP180;46834;51.100;6.886;2022-11-15T10:43:18;100374.00;;;15.70
60966;BMP180;46834;51.100;6.886;2022-11-15T10:45:46;100375.00;;;15.70
60966;BMP180;46834;51.100;6.886;2022-11-15T10:50:43;100361.00;;;15.80
60966;BMP180;46834;51.100;6.886;2022-11-15T10:53:30;100347.00;;;15.80
60966;BMP180;46834;51.100;6.886;2022-11-15T10:56:02;100347.00;;;15.80
60966;BMP180;46834;51.100;6.886;2022-11-15T10:58:37;100339.00;;;15.80
60966;BMP180;46834;51.100;6.886;2022-11-15T11:01:17;100334.00;;;15.80
60966;BMP180;46834;51.100;6.886;2022-11-15T11:04:04;100343.00;;;15.90
60966;BMP180;46834;51.100;6.886;2022-11-15T11:06:55;100326.00;;;15.90
60966;BMP180;46834;51.100;6.886;2022-11-15T11:11:53;100331.00;;;16.00
60966;BMP180;46834;51.100;6.886;2022-11-15T11:14:29;100334.00;;;16.00
60966;BMP180;46834;51.100;6.886;2022-11-15T11:20:39;100320.00;;;16.10
60966;BMP180;46834;51.100;6.886;2022-11-15T11:31:58;100322.00;;;16.20
60966;BMP180;46834;51.100;6.886;2022-11-15T11:38:03;100303.00;;;16.50
60966;BMP180;46834;51.100;6.886;2022-11-15T11:40:37;100299.00;;;16.40
60966;BMP180;46834;51.100;6.886;2022-11-15T11:48:43;100295.00;;;16.60
60966;BMP180;46834;51.100;6.886;2022-11-15T11:51:27;100288.00;;;16.90
60966;BMP180;46834;51.100;6.886;2022-11-15T11:54:14;100296.00;;;17.00
60966;BMP180;46834;51.100;6.886;2022-11-15T11:56:44;100288.00;;;16.90
60966;BMP180;46834;51.100;6.886;2022-11-15T12:02:24;100297.00;;;17.10
60966;BMP180;46834;51.100;6.886;2022-11-15T12:05:03;100292.00;;;16.90
60966;BMP180;46834;51.100;6.886;2022-11-15T12:07:34;100280.00;;;16.80
60966;BMP180;46834;51.100;6.886;2022-11-15T12:10:19;100273.00;;;16.80
60966;BMP180;46834;51.100;6.886;2022-11-15T12:13:07;100269.00;;;16.70
60966;BMP180;46834;51.100;6.886;2022-11-15T12:15:48;100265.00;;;16.70
60966;BMP180;46834;51.100;6.886;2022-11-15T12:18:18;100254.00;;;16.80
60966;BMP180;46834;51.100;6.886;2022-11-15T12:20:58;100249.00;;;16.70
60966;BMP180;46834;51.100;6.886;2022-11-15T12:23:42;100238.00;;;16.70
60966;BMP180;46834;51.100;6.886;2022-11-15T12:26:33;100237.00;;;16.70
60966;BMP180;46834;51.100;6.886;2022-11-15T12:29:09;100237.00;;;16.70
60966;BMP180;46834;51.100;6.886;2022-11-15T12:31:42;100236.00;;;16.70
60966;BMP180;46834;51.100;6.886;2022-11-15T12:34:38;100237.00;;;16.70
60966;BMP180;46834;51.100;6.886;2022-11-15T12:37:47;100223.00;;;16.70
60966;BMP180;46834;51.100;6.886;2022-11-15T12:43:42;100200.00;;;16.80
60966;BMP180;46834;51.100;6.886;2022-11-15T13:02:40;100179.00;;;17.00
60966;BMP180;46834;51.100;6.886;2022-11-15T13:20:48;100147.00;;;17.10
60966;BMP180;46834;51.100;6.886;2022-11-15T13:23:15;100143.00;;;17.10
60966;BMP180;46834;51.100;6.886;2022-11-15T13:26:06;100141.00;;;17.10
60966;BMP180;46834;51.100;6.886;2022-11-15T13:28:44;100134.00;;;17.10
60966;BMP180;46834;51.100;6.886;2022-11-15T13:31:41;100140.00;;;17.10
60966;BMP180;46834;51.100;6.886;2022-11-15T13:34:26;100127.00;;;17.10
60966;BMP180;46834;51.100;6.886;2022-11-15T13:36:52;100128.00;;;17.20
60966;BMP180;46834;51.100;6.886;2022-11-15T13:39:34;100112.00;;;17.10
60966;BMP180;46834;51.100;6.886;2022-11-15T13:42:03;100115.00;;;17.20
60966;BMP180;46834;51.100;6.886;2022-11-15T13:44:32;100114.00;;;17.20
60966;BMP180;46834;51.100;6.886;2022-11-15T13:47:14;100117.00;;;17.20
60966;BMP180;46834;51.100;6.886;2022-11-15T13:49:40;100124.00;;;17.30
60966;BMP180;46834;51.100;6.886;2022-11-15T13:52:11;100113.00;;;17.30
60966;BMP180;46834;51.100;6.886;2022-11-15T13:57:29;100095.00;;;17.20
60966;BMP180;46834;51.100;6.886;2022-11-15T14:00:23;100098.00;;;17.20
60966;BMP180;46834;51.100;6.886;2022-11-15T14:02:50;100101.00;;;17.30
60966;BMP180;46834;51.100;6.886;2022-11-15T14:05:19;100101.00;;;17.30
60966;BMP180;46834;51.100;6.886;2022-11-15T14:10:43;100084.00;;;17.30
60966;BMP180;46834;51.100;6.886;2022-11-15T14:13:30;100065.00;;;17.20
60966;BMP180;46834;51.100;6.886;2022-11-15T14:16:20;100062.00;;;17.20
60966;BMP180;46834;51.100;6.886;2022-11-15T14:18:53;100070.00;;;17.20
60966;BMP180;46834;51.100;6.886;2022-11-15T14:21:20;100067.00;;;17.30
60966;BMP180;46834;51.100;6.886;2022-11-15T14:23:46;100054.00;;;17.30
60966;BMP180;46834;51.100;6.886;2022-11-15T14:26:34;100048.00;;;17.20
60966;BMP180;46834;51.100;6.886;2022-11-15T14:29:29;100042.00;;;17.20
60966;BMP180;46834;51.100;6.886;2022-11-15T14:34:47;100035.00;;;17.20
60966;BMP180;46834;51.100;6.886;2022-11-15T14:37:25;100028.00;;;17.20
60966;BMP180;46834;51.100;6.886;2022-11-15T14:39:52;100030.00;;;17.20
60966;BMP180;46834;51.100;6.886;2022-11-15T14:42:19;100019.00;;;17.20
60966;BMP180;46834;51.100;6.886;2022-11-15T14:44:45;100020.00;;;17.20
60966;BMP180;46834;51.100;6.886;2022-11-15T14:47:11;100017.00;;;17.20
60966;BMP180;46834;51.100;6.886;2022-11-15T14:49:37;100017.00;;;17.20
60966;BMP180;46834;51.100;6.886;2022-11-15T14:52:26;100018.00;;;17.10
60966;BMP180;46834;51.100;6.886;2022-11-15T14:54:54;100013.00;;;17.20
60966;BMP180;46834;51.100;6.886;2022-11-15T14:57:21;99990.00;;;17.20
60966;BMP180;46834;51.100;6.886;2022-11-15T14:59:47;99997.00;;;17.20
60966;BMP180;46834;51.100;6.886;2022-11-15T15:02:25;99995.00;;;17.10
60966;BMP180;46834;51.100;6.886;2022-11-15T15:04:52;99990.00;;;17.10
60966;BMP180;46834;51.100;6.886;2022-11-15T15:07:18;99973.00;;;17.10
60966;BMP180;46834;51.100;6.886;2022-11-15T15:09:45;99979.00;;;17.10
60966;BMP180;46834;51.100;6.886;2022-11-15T15:12:22;99960.00;;;17.10
60966;BMP180;46834;51.100;6.886;2022-11-15T15:14:50;99974.00;;;17.10
60966;BMP180;46834;51.100;6.886;2022-11-15T15:17:17;99963.00;;;17.10
60966;BMP180;46834;51.100;6.886;2022-11-15T15:19:43;99962.00;;;17.10
60966;BMP180;46834;51.100;6.886;2022-11-15T15:22:17;99945.00;;;17.00
60966;BMP180;46834;51.100;6.886;2022-11-15T15:24:45;99950.00;;;17.00
60966;BMP180;46834;51.100;6.886;2022-11-15T15:27:12;99948.00;;;17.00
60966;BMP180;46834;51.100;6.886;2022-11-15T15:29:38;99942.00;;;17.00
60966;BMP180;46834;51.100;6.886;2022-11-15T15:32:04;99942.00;;;17.00
60966;BMP180;46834;51.100;6.886;2022-11-15T15:34:31;99940.00;;;17.00
60966;BMP180;46834;51.100;6.886;2022-11-15T15:37:26;99940.00;;;16.90
60966;BMP180;46834;51.100;6.886;2022-11-15T15:39:54;99938.00;;;16.90
60966;BMP180;46834;51.100;6.886;2022-11-15T15:42:21;99925.00;;;16.90
60966;BMP180;46834;51.100;6.886;2022-11-15T15:44:49;99930.00;;;16.90
60966;BMP180;46834;51.100;6.886;2022-11-15T15:47:21;99926.00;;;16.90
60966;BMP180;46834;51.100;6.886;2022-11-15T15:49:48;99927.00;;;16.90
60966;BMP180;46834;51.100;6.886;2022-11-15T15:52:14;99927.00;;;16.90
60966;BMP180;46834;51.100;6.886;2022-11-15T15:54:40;99921.00;;;16.90
60966;BMP180;46834;51.100;6.886;2022-11-15T15:57:08;99924.00;;;16.90
60966;BMP180;46834;51.100;6.886;2022-11-15T15:59:36;99926.00;;;16.90
60966;BMP180;46834;51.100;6.886;2022-11-15T16:02:02;99917.00;;;16.90
60966;BMP180;46834;51.100;6.886;2022-11-15T16:04:28;99913.00;;;16.90
60966;BMP180;46834;51.100;6.886;2022-11-15T16:07:01;99917.00;;;16.80
60966;BMP180;46834;51.100;6.886;2022-11-15T16:09:28;99917.00;;;16.90
60966;BMP180;46834;51.100;6.886;2022-11-15T16:12:12;99896.00;;;16.80
60966;BMP180;46834;51.100;6.886;2022-11-15T16:14:38;99899.00;;;16.80